Buoy 41936

sailwx.info

Track history (hours):
 
Tides and Currents Weather Stations Pressure Air Temp Water Temp Dewpoint Dewpoint Depression Visibility Wind Speed Wind Dir Waves Ship Positions

Drifting buoy 41936

Last reported at 2014-Sep-17 14:00 UTC. Time now 2014-Sep-17 15:41 UTC.
Position N 30°17' W 065°12'.

Barometer 1015.0 mb
Water temperature 27.9 ° C

Date/timePositionNaut miles runAvg speedWind from/ knotsBaromVisibWave heightAir tempDewpointWater temp
2014-Sep-17 14:00N 30°17' W 065°12'0 0.0 1015.0 27.9
2014-Sep-17 13:00N 30°17' W 065°12'1 1.3 1014.6 27.9
2014-Sep-17 12:00N 30°18' W 065°13'1 0.6 1014.2 27.9
2014-Sep-17 10:00N 30°19' W 065°14'1 1.0 1012.9 27.9
2014-Sep-17 09:00N 30°18' W 065°14'1 0.9 1012.7 27.9
2014-Sep-17 08:00N 30°19' W 065°14'0 0.0 1012.7 27.9
2014-Sep-17 06:00N 30°19' W 065°14'2 0.5 1013.4 27.9
2014-Sep-17 03:00N 30°20' W 065°16'1 0.8 1014.0 28.0
2014-Sep-17 02:00N 30°20' W 065°15'2 1.7 1014.2 28.0
2014-Sep-17 01:00N 30°21' W 065°17'0 0.0 1014.5 28.0
2014-Sep-16 23:00N 30°21' W 065°17'2 0.7 1014.0 28.1
2014-Sep-16 20:00N 30°22' W 065°19'0 0.0 1013.6 28.2
2014-Sep-16 19:00N 30°22' W 065°19'0 0.1 1013.9 28.2
2014-Sep-16 18:00N 30°22' W 065°19'2 1.8 1014.2 28.2
2014-Sep-16 17:00N 30°23' W 065°21'0 0.1 1014.8 28.2
2014-Sep-16 15:00N 30°23' W 065°21'1 1.5 1016.2 28.0
2014-Sep-16 14:00N 30°22' W 065°19'0 0.0 1016.8 28.0
2014-Sep-16 13:00N 30°22' W 065°19'3 1.0 1017.1 28.0
2014-Sep-16 10:00N 30°23' W 065°23'0 0.1 1016.7 27.9
2014-Sep-16 08:00N 30°23' W 065°23'0 0.0 1016.8 28.0
2014-Sep-16 07:00N 30°23' W 065°23'2 0.3 1016.7 28.0
2014-Sep-16 01:00N 30°25' W 065°23'4 0.6 1019.0 28.1
2014-Sep-15 18:00N 30°27' W 065°27'1 0.5 1019.6 28.6
2014-Sep-15 16:00N 30°27' W 065°28'0 0.0 1020.6 28.4
2014-Sep-15 15:00N 30°27' W 065°28'0 0.5 1021.0 28.3
2014-Sep-15 14:00N 30°27' W 065°29'1 0.3 1021.2 28.1
2014-Sep-15 11:00N 30°28' W 065°29'0 0.3 1021.1 28.0
2014-Sep-15 10:00N 30°28' W 065°29'0 0.5 1020.7 28.0
2014-Sep-15 09:00N 30°28' W 065°29'1 0.3 1020.4 28.0
2014-Sep-15 07:00N 30°28' W 065°30'0 0.0 1019.8 28.1
2014-Sep-15 06:00N 30°28' W 065°30'1 0.4 1020.5 28.2
2014-Sep-15 03:00N 30°30' W 065°30'0 0.3 1022.0 28.4
2014-Sep-15 02:00N 30°30' W 065°30'1 0.6 1022.2 28.5
2014-Sep-15 01:00N 30°30' W 065°31'2 2.1 1022.1 28.3
2014-Sep-15 00:00N 30°32' W 065°32'0 0.2 1021.9 28.3
2014-Sep-14 21:00N 30°32' W 065°32'1 0.5 1021.2 29.4
2014-Sep-14 18:00N 30°31' W 065°34'0 0.1 1021.6 30.1
2014-Sep-14 15:00N 30°31' W 065°34'0 0.2 1022.7 28.4
2014-Sep-14 14:00N 30°31' W 065°34'0 0.2 1022.8 28.1
2014-Sep-14 12:00N 30°32' W 065°34'1 0.7 1022.3 28.0
2014-Sep-14 11:00N 30°32' W 065°34'0 0.4 1021.9 27.9
2014-Sep-14 10:00N 30°33' W 065°34'0 0.4 1021.7 27.9
2014-Sep-14 09:00N 30°33' W 065°35'0 0.2 1021.4 27.9
2014-Sep-14 07:00N 30°33' W 065°35'1 0.2 1020.7 27.9
2014-Sep-14 02:00N 30°33' W 065°36'1 0.7 1021.0 27.9
2014-Sep-14 01:00N 30°34' W 065°36'1 0.3 1020.8 28.0
2014-Sep-13 23:00N 30°34' W 065°37'1 0.6 1020.2 28.0
2014-Sep-13 21:00N 30°35' W 065°38'1 0.2 1019.7 28.0
2014-Sep-13 18:00N 30°35' W 065°38'0 0.0 1019.2 28.1
2014-Sep-13 16:00N 30°35' W 065°38'0 0.2 1019.5 28.0
2014-Sep-13 15:00N 30°35' W 065°38'0 0.4 1019.2 28.0
2014-Sep-13 14:00N 30°35' W 065°38'1 0.2 1019.2 27.9
2014-Sep-13 10:00N 30°36' W 065°39'1 0.8 1017.2 27.8
2014-Sep-13 09:00N 30°36' W 065°39'1 0.6 1016.6 27.8
2014-Sep-13 07:00N 30°35' W 065°40'1 0.1 1016.2 27.8
2014-Sep-13 02:00N 30°36' W 065°40'0 0.3 1017.0 27.9
2014-Sep-13 01:00N 30°36' W 065°40'0 0.1 1016.6 27.9
2014-Sep-12 22:00N 30°36' W 065°40'0 0.4 1016.2 28.0
2014-Sep-12 21:00N 30°36' W 065°41'0 0.1 1016.0 28.0
2014-Sep-12 19:00N 30°36' W 065°41'0 0.0 1016.2 28.0
2014-Sep-12 18:00N 30°36' W 065°41'1 0.4 1016.3 28.0
2014-Sep-12 15:00N 30°36' W 065°42'1 0.6 1017.1 28.0
2014-Sep-12 14:00N 30°36' W 065°42'0 0.1 1017.4 28.0
2014-Sep-12 11:00N 30°35' W 065°42'0 0.4 1016.2 27.9
2014-Sep-12 10:00N 30°35' W 065°42'0 0.3 1016.0 27.9
2014-Sep-12 09:00N 30°35' W 065°42'0 0.2 1015.3 28.0
2014-Sep-12 07:00N 30°35' W 065°42'0 0.0 1015.2 28.0
2014-Sep-12 02:00N 30°35' W 065°42'2 1.7 1016.5 28.1
2014-Sep-12 01:00N 30°36' W 065°44'0 0.4 1016.4 28.1
2014-Sep-12 00:00N 30°36' W 065°44'1 0.6 1016.0 28.1
2014-Sep-11 22:00N 30°36' W 065°43'2 0.7 1015.7 28.2
2014-Sep-11 19:00N 30°36' W 065°45'0 0.0 1015.8 28.3
2014-Sep-11 17:00N 30°36' W 065°45'1 0.6 1017.0 28.2
2014-Sep-11 15:00N 30°35' W 065°47'2 2.1 1017.5 28.1
2014-Sep-11 14:00N 30°35' W 065°44'3 1.0 1017.5 28.0
2014-Sep-11 11:00N 30°35' W 065°48'0 0.5 1016.7 28.0
2014-Sep-11 10:00N 30°34' W 065°48'0 0.0 1016.5 28.0
2014-Sep-11 09:00N 30°34' W 065°48'0 0.2 1016.1 28.0
2014-Sep-11 08:00N 30°34' W 065°47'0 0.1 1015.8 28.0
2014-Sep-11 06:00N 30°34' W 065°47'2 0.4 1016.6 28.0
2014-Sep-11 02:00N 30°35' W 065°49'1 1.5 1017.4 28.1
2014-Sep-11 01:00N 30°36' W 065°50'0 0.0 1017.4 28.1
2014-Sep-11 00:00N 30°36' W 065°50'0 0.0 1017.5 28.1
2014-Sep-10 23:00N 30°36' W 065°50'0 0.4 1017.1 28.2
2014-Sep-10 22:00N 30°35' W 065°51'0 0.5 1016.8 28.3
2014-Sep-10 21:00N 30°36' W 065°50'1 1.0 1016.8 28.3
2014-Sep-10 20:00N 30°35' W 065°51'1 1.4 1017.0 28.3
2014-Sep-10 19:00N 30°35' W 065°53'0 0.0 1017.2 28.4
2014-Sep-10 17:00N 30°35' W 065°53'0 0.3 1018.3 28.3
2014-Sep-10 16:00N 30°35' W 065°53'0 0.0 1018.8 28.2
2014-Sep-10 15:00N 30°35' W 065°53'1 0.7 1019.1 28.2
2014-Sep-10 14:00N 30°34' W 065°54'1 0.3 1019.0 28.1
2014-Sep-10 10:00N 30°33' W 065°54'0 0.0 1017.6 28.0
2014-Sep-10 09:00N 30°33' W 065°54'1 0.6 1017.4 28.0
2014-Sep-10 08:00N 30°34' W 065°54'0 0.0 1017.5 28.0
2014-Sep-10 06:00N 30°34' W 065°54'1 0.4 1018.4 28.1
2014-Sep-10 03:00N 30°35' W 065°55'1 0.6 1019.4 28.2
2014-Sep-10 02:00N 30°35' W 065°54'1 1.1 1019.2 28.2
2014-Sep-10 01:00N 30°35' W 065°56'3 0.6 1019.3 28.2
2014-Sep-09 21:00N 30°35' W 065°59'0 0.5 1010.6 -0.1
2014-Sep-09 20:00N 30°35' W 065°59'1 0.6 1019.2 28.6
2014-Sep-09 19:00N 30°34' W 065°59'1 0.7 1019.7 28.6
2014-Sep-09 18:00N 30°34' W 065°59'0 0.1 1020.2 28.7
2014-Sep-09 15:00N 30°34' W 065°59'1 0.6 1021.3 28.3
2014-Sep-09 14:00N 30°34' W 065°59'0 0.0 1021.5 28.2
2014-Sep-09 13:00N 30°34' W 065°59'0 0.2 1020.8 28.1
2014-Sep-09 12:00N 30°33' W 065°59'0 0.0 1020.6 28.1
2014-Sep-09 11:00N 30°33' W 065°59'1 1.0 1020.3 28.1
2014-Sep-09 10:00N 30°34' W 065°59'0 0.0 1020.1 28.2
2014-Sep-09 09:00N 30°34' W 065°59'0 0.4 1019.9 28.2
2014-Sep-09 08:00N 30°35' W 065°59'1 0.3 1019.8 28.2
2014-Sep-09 06:00N 30°35' W 065°60'2 0.4 1020.6 28.3
2014-Sep-09 02:00N 30°35' W 066°02'0 0.0 1021.3 28.4
2014-Sep-09 01:00N 30°35' W 066°02'1 1.0 1021.2 28.4
2014-Sep-09 00:00N 30°35' W 066°03'0 0.1 1020.7 28.5
2014-Sep-08 22:00N 30°35' W 066°03'1 0.4 1020.1 28.6
2014-Sep-08 20:00N 30°34' W 066°03'0 0.0 1020.5 28.9
2014-Sep-08 19:00N 30°34' W 066°03'0 0.3 1020.7 28.9
2014-Sep-08 18:00N 30°33' W 066°03'0 0.1 1021.2 28.8
2014-Sep-08 16:00N 30°33' W 066°03'0 0.0 1021.4 28.4
2014-Sep-08 14:00N 30°33' W 066°03'1 1.0 1021.4 28.2
2014-Sep-08 13:00N 30°33' W 066°04'1 0.4 1021.2 28.2
2014-Sep-08 11:00N 30°34' W 066°03'0 0.4 1020.4 28.1
2014-Sep-08 10:00N 30°34' W 066°04'0 0.1 1019.8 28.1
2014-Sep-08 09:00N 30°34' W 066°04'1 0.5 1019.5 28.1
2014-Sep-08 08:00N 30°34' W 066°04'0 0.2 1019.6 28.1
2014-Sep-08 06:00N 30°34' W 066°04'0 0.0 1019.8 28.2
2014-Sep-08 05:00N 30°34' W 066°04'1 0.5 1019.9 28.3
2014-Sep-08 02:00N 30°34' W 066°06'2 1.8 1019.7 28.7
2014-Sep-08 01:00N 30°33' W 066°08'0 0.0 1019.0 -0.1
2014-Sep-08 00:00N 30°33' W 066°08'0 0.0 1019.0 28.9
2014-Sep-07 23:00N 30°33' W 066°08'1 1.0 1018.8 29.1
2014-Sep-07 22:00N 30°33' W 066°07'1 0.3 1018.5 29.4
2014-Sep-07 20:00N 30°32' W 066°08'0 0.3 1018.6 29.7
2014-Sep-07 19:00N 30°32' W 066°08'0 0.1 1019.1 29.9
2014-Sep-07 18:00N 30°32' W 066°08'0 0.0 1019.3 30.1
2014-Sep-07 17:00N 30°32' W 066°08'0 0.2 1019.4 29.7
2014-Sep-07 15:00N 30°31' W 066°08'   1019.6 28.7
Track history (hours):
 
Tides and Currents Weather Stations Pressure Air Temp Water Temp Dewpoint Dewpoint Depression Visibility Wind Speed Wind Dir Waves Ship Positions

Drifting buoy 41936

Last reported at 2014-Sep-17 14:00 UTC. Time now 2014-Sep-17 15:41 UTC.
Position N 30°17' W 065°12'.

Barometer 1015.0 mb
Water temperature 27.9 ° C

Date/timePositionNaut miles runAvg speedWind from/ knotsBaromVisibWave heightAir tempDewpointWater temp
2014-Sep-17 14:00N 30°17' W 065°12'0 0.0 1015.0 27.9
2014-Sep-17 13:00N 30°17' W 065°12'1 1.3 1014.6 27.9
2014-Sep-17 12:00N 30°18' W 065°13'1 0.6 1014.2 27.9
2014-Sep-17 10:00N 30°19' W 065°14'1 1.0 1012.9 27.9
2014-Sep-17 09:00N 30°18' W 065°14'1 0.9 1012.7 27.9
2014-Sep-17 08:00N 30°19' W 065°14'0 0.0 1012.7 27.9
2014-Sep-17 06:00N 30°19' W 065°14'2 0.5 1013.4 27.9
2014-Sep-17 03:00N 30°20' W 065°16'1 0.8 1014.0 28.0
2014-Sep-17 02:00N 30°20' W 065°15'2 1.7 1014.2 28.0
2014-Sep-17 01:00N 30°21' W 065°17'0 0.0 1014.5 28.0
2014-Sep-16 23:00N 30°21' W 065°17'2 0.7 1014.0 28.1
2014-Sep-16 20:00N 30°22' W 065°19'0 0.0 1013.6 28.2
2014-Sep-16 19:00N 30°22' W 065°19'0 0.1 1013.9 28.2
2014-Sep-16 18:00N 30°22' W 065°19'2 1.8 1014.2 28.2
2014-Sep-16 17:00N 30°23' W 065°21'0 0.1 1014.8 28.2
2014-Sep-16 15:00N 30°23' W 065°21'1 1.5 1016.2 28.0
2014-Sep-16 14:00N 30°22' W 065°19'0 0.0 1016.8 28.0
2014-Sep-16 13:00N 30°22' W 065°19'3 1.0 1017.1 28.0
2014-Sep-16 10:00N 30°23' W 065°23'0 0.1 1016.7 27.9
2014-Sep-16 08:00N 30°23' W 065°23'0 0.0 1016.8 28.0
2014-Sep-16 07:00N 30°23' W 065°23'2 0.3 1016.7 28.0
2014-Sep-16 01:00N 30°25' W 065°23'4 0.6 1019.0 28.1
2014-Sep-15 18:00N 30°27' W 065°27'1 0.5 1019.6 28.6
2014-Sep-15 16:00N 30°27' W 065°28'0 0.0 1020.6 28.4
2014-Sep-15 15:00N 30°27' W 065°28'0 0.5 1021.0 28.3
2014-Sep-15 14:00N 30°27' W 065°29'1 0.3 1021.2 28.1
2014-Sep-15 11:00N 30°28' W 065°29'0 0.3 1021.1 28.0
2014-Sep-15 10:00N 30°28' W 065°29'0 0.5 1020.7 28.0
2014-Sep-15 09:00N 30°28' W 065°29'1 0.3 1020.4 28.0
2014-Sep-15 07:00N 30°28' W 065°30'0 0.0 1019.8 28.1
2014-Sep-15 06:00N 30°28' W 065°30'1 0.4 1020.5 28.2
2014-Sep-15 03:00N 30°30' W 065°30'0 0.3 1022.0 28.4
2014-Sep-15 02:00N 30°30' W 065°30'1 0.6 1022.2 28.5
2014-Sep-15 01:00N 30°30' W 065°31'2 2.1 1022.1 28.3
2014-Sep-15 00:00N 30°32' W 065°32'0 0.2 1021.9 28.3
2014-Sep-14 21:00N 30°32' W 065°32'1 0.5 1021.2 29.4
2014-Sep-14 18:00N 30°31' W 065°34'0 0.1 1021.6 30.1
2014-Sep-14 15:00N 30°31' W 065°34'0 0.2 1022.7 28.4
2014-Sep-14 14:00N 30°31' W 065°34'0 0.2 1022.8 28.1
2014-Sep-14 12:00N 30°32' W 065°34'1 0.7 1022.3 28.0
2014-Sep-14 11:00N 30°32' W 065°34'0 0.4 1021.9 27.9
2014-Sep-14 10:00N 30°33' W 065°34'0 0.4 1021.7 27.9
2014-Sep-14 09:00N 30°33' W 065°35'0 0.2 1021.4 27.9
2014-Sep-14 07:00N 30°33' W 065°35'1 0.2 1020.7 27.9
2014-Sep-14 02:00N 30°33' W 065°36'1 0.7 1021.0 27.9
2014-Sep-14 01:00N 30°34' W 065°36'1 0.3 1020.8 28.0
2014-Sep-13 23:00N 30°34' W 065°37'1 0.6 1020.2 28.0
2014-Sep-13 21:00N 30°35' W 065°38'1 0.2 1019.7 28.0
2014-Sep-13 18:00N 30°35' W 065°38'0 0.0 1019.2 28.1
2014-Sep-13 16:00N 30°35' W 065°38'0 0.2 1019.5 28.0
2014-Sep-13 15:00N 30°35' W 065°38'0 0.4 1019.2 28.0
2014-Sep-13 14:00N 30°35' W 065°38'1 0.2 1019.2 27.9
2014-Sep-13 10:00N 30°36' W 065°39'1 0.8 1017.2 27.8
2014-Sep-13 09:00N 30°36' W 065°39'1 0.6 1016.6 27.8
2014-Sep-13 07:00N 30°35' W 065°40'1 0.1 1016.2 27.8
2014-Sep-13 02:00N 30°36' W 065°40'0 0.3 1017.0 27.9
2014-Sep-13 01:00N 30°36' W 065°40'0 0.1 1016.6 27.9
2014-Sep-12 22:00N 30°36' W 065°40'0 0.4 1016.2 28.0
2014-Sep-12 21:00N 30°36' W 065°41'0 0.1 1016.0 28.0
2014-Sep-12 19:00N 30°36' W 065°41'0 0.0 1016.2 28.0
2014-Sep-12 18:00N 30°36' W 065°41'1 0.4 1016.3 28.0
2014-Sep-12 15:00N 30°36' W 065°42'1 0.6 1017.1 28.0
2014-Sep-12 14:00N 30°36' W 065°42'0 0.1 1017.4 28.0
2014-Sep-12 11:00N 30°35' W 065°42'0 0.4 1016.2 27.9
2014-Sep-12 10:00N 30°35' W 065°42'0 0.3 1016.0 27.9
2014-Sep-12 09:00N 30°35' W 065°42'0 0.2 1015.3 28.0
2014-Sep-12 07:00N 30°35' W 065°42'0 0.0 1015.2 28.0
2014-Sep-12 02:00N 30°35' W 065°42'2 1.7 1016.5 28.1
2014-Sep-12 01:00N 30°36' W 065°44'0 0.4 1016.4 28.1
2014-Sep-12 00:00N 30°36' W 065°44'1 0.6 1016.0 28.1
2014-Sep-11 22:00N 30°36' W 065°43'2 0.7 1015.7 28.2
2014-Sep-11 19:00N 30°36' W 065°45'0 0.0 1015.8 28.3
2014-Sep-11 17:00N 30°36' W 065°45'1 0.6 1017.0 28.2
2014-Sep-11 15:00N 30°35' W 065°47'2 2.1 1017.5 28.1
2014-Sep-11 14:00N 30°35' W 065°44'3 1.0 1017.5 28.0
2014-Sep-11 11:00N 30°35' W 065°48'0 0.5 1016.7 28.0
2014-Sep-11 10:00N 30°34' W 065°48'0 0.0 1016.5 28.0
2014-Sep-11 09:00N 30°34' W 065°48'0 0.2 1016.1 28.0
2014-Sep-11 08:00N 30°34' W 065°47'0 0.1 1015.8 28.0
2014-Sep-11 06:00N 30°34' W 065°47'2 0.4 1016.6 28.0
2014-Sep-11 02:00N 30°35' W 065°49'1 1.5 1017.4 28.1
2014-Sep-11 01:00N 30°36' W 065°50'0 0.0 1017.4 28.1
2014-Sep-11 00:00N 30°36' W 065°50'0 0.0 1017.5 28.1
2014-Sep-10 23:00N 30°36' W 065°50'0 0.4 1017.1 28.2
2014-Sep-10 22:00N 30°35' W 065°51'0 0.5 1016.8 28.3
2014-Sep-10 21:00N 30°36' W 065°50'1 1.0 1016.8 28.3
2014-Sep-10 20:00N 30°35' W 065°51'1 1.4 1017.0 28.3
2014-Sep-10 19:00N 30°35' W 065°53'0 0.0 1017.2 28.4
2014-Sep-10 17:00N 30°35' W 065°53'0 0.3 1018.3 28.3
2014-Sep-10 16:00N 30°35' W 065°53'0 0.0 1018.8 28.2
2014-Sep-10 15:00N 30°35' W 065°53'1 0.7 1019.1 28.2
2014-Sep-10 14:00N 30°34' W 065°54'1 0.3 1019.0 28.1
2014-Sep-10 10:00N 30°33' W 065°54'0 0.0 1017.6 28.0
2014-Sep-10 09:00N 30°33' W 065°54'1 0.6 1017.4 28.0
2014-Sep-10 08:00N 30°34' W 065°54'0 0.0 1017.5 28.0
2014-Sep-10 06:00N 30°34' W 065°54'1 0.4 1018.4 28.1
2014-Sep-10 03:00N 30°35' W 065°55'1 0.6 1019.4 28.2
2014-Sep-10 02:00N 30°35' W 065°54'1 1.1 1019.2 28.2
2014-Sep-10 01:00N 30°35' W 065°56'3 0.6 1019.3 28.2
2014-Sep-09 21:00N 30°35' W 065°59'0 0.5 1010.6 -0.1
2014-Sep-09 20:00N 30°35' W 065°59'1 0.6 1019.2 28.6
2014-Sep-09 19:00N 30°34' W 065°59'1 0.7 1019.7 28.6
2014-Sep-09 18:00N 30°34' W 065°59'0 0.1 1020.2 28.7
2014-Sep-09 15:00N 30°34' W 065°59'1 0.6 1021.3 28.3
2014-Sep-09 14:00N 30°34' W 065°59'0 0.0 1021.5 28.2
2014-Sep-09 13:00N 30°34' W 065°59'0 0.2 1020.8 28.1
2014-Sep-09 12:00N 30°33' W 065°59'0 0.0 1020.6 28.1
2014-Sep-09 11:00N 30°33' W 065°59'1 1.0 1020.3 28.1
2014-Sep-09 10:00N 30°34' W 065°59'0 0.0 1020.1 28.2
2014-Sep-09 09:00N 30°34' W 065°59'0 0.4 1019.9 28.2
2014-Sep-09 08:00N 30°35' W 065°59'1 0.3 1019.8 28.2
2014-Sep-09 06:00N 30°35' W 065°60'2 0.4 1020.6 28.3
2014-Sep-09 02:00N 30°35' W 066°02'0 0.0 1021.3 28.4
2014-Sep-09 01:00N 30°35' W 066°02'1 1.0 1021.2 28.4
2014-Sep-09 00:00N 30°35' W 066°03'0 0.1 1020.7 28.5
2014-Sep-08 22:00N 30°35' W 066°03'1 0.4 1020.1 28.6
2014-Sep-08 20:00N 30°34' W 066°03'0 0.0 1020.5 28.9
2014-Sep-08 19:00N 30°34' W 066°03'0 0.3 1020.7 28.9
2014-Sep-08 18:00N 30°33' W 066°03'0 0.1 1021.2 28.8
2014-Sep-08 16:00N 30°33' W 066°03'0 0.0 1021.4 28.4
2014-Sep-08 14:00N 30°33' W 066°03'1 1.0 1021.4 28.2
2014-Sep-08 13:00N 30°33' W 066°04'1 0.4 1021.2 28.2
2014-Sep-08 11:00N 30°34' W 066°03'0 0.4 1020.4 28.1
2014-Sep-08 10:00N 30°34' W 066°04'0 0.1 1019.8 28.1
2014-Sep-08 09:00N 30°34' W 066°04'1 0.5 1019.5 28.1
2014-Sep-08 08:00N 30°34' W 066°04'0 0.2 1019.6 28.1
2014-Sep-08 06:00N 30°34' W 066°04'0 0.0 1019.8 28.2
2014-Sep-08 05:00N 30°34' W 066°04'1 0.5 1019.9 28.3
2014-Sep-08 02:00N 30°34' W 066°06'2 1.8 1019.7 28.7
2014-Sep-08 01:00N 30°33' W 066°08'0 0.0 1019.0 -0.1
2014-Sep-08 00:00N 30°33' W 066°08'0 0.0 1019.0 28.9
2014-Sep-07 23:00N 30°33' W 066°08'1 1.0 1018.8 29.1
2014-Sep-07 22:00N 30°33' W 066°07'1 0.3 1018.5 29.4
2014-Sep-07 20:00N 30°32' W 066°08'0 0.3 1018.6 29.7
2014-Sep-07 19:00N 30°32' W 066°08'0 0.1 1019.1 29.9
2014-Sep-07 18:00N 30°32' W 066°08'0 0.0 1019.3 30.1
2014-Sep-07 17:00N 30°32' W 066°08'0 0.2 1019.4 29.7
2014-Sep-07 15:00N 30°31' W 066°08'   1019.6 28.7

Dump ship's entire track history